Date, South Dakota
Current Conditions -  °F | °C
As of 4:53 PM on Wednesday 26 Nov 2014 (Local Time) from KHEI Reporting Station
Clear Clear  
Wind Chill: 15°   Ceiling: Unl
Heat Index: 15°   Visibility: 10mi
Dew Point: 11°   Wind: 3mph
Humidity: 84%   Direction: 80°E
Pressure: 30.32"   Gusts: NA
Location:  45.6029°N, 102.827°W
Report Text: KHEI 262353Z AUTO 08003KT 10SM CLR M09/M12 A3032 RMK AO2 SLP313 60000 T10941117 11044 21100 51010
Loading
Personal Weather Stations






























Interactive Weather Map New forecast layout! Learn more

10-Day Weather Forecast

Advertisements
Track Severe Weather on mobile